createdAt,value
2023-02-18T00:02:13.702Z,100839.59
2023-02-18T00:04:42.128Z,100826.72
2023-02-18T00:07:10.862Z,100828.75
2023-02-18T00:09:39.746Z,100815.41
2023-02-18T00:12:08.438Z,100810.84
2023-02-18T00:14:36.657Z,100814.31
2023-02-18T00:17:05.539Z,100809.03
2023-02-18T00:19:34.283Z,100801.97
2023-02-18T00:22:02.362Z,100789.56
2023-02-18T00:24:30.744Z,100781.75
2023-02-18T00:26:59.202Z,100779.03
2023-02-18T00:29:27.942Z,100773.59
2023-02-18T00:31:57.872Z,100776.28
2023-02-18T00:34:26.599Z,100761.38
2023-02-18T00:36:57.322Z,100753.63
2023-02-18T00:39:25.694Z,100743.00
2023-02-18T00:41:58.559Z,100743.00
2023-02-18T00:44:27.834Z,100738.69
2023-02-18T00:46:56.003Z,100740.34
2023-02-18T00:49:24.347Z,100740.53
2023-02-18T00:51:52.394Z,100729.16
2023-02-18T00:54:20.708Z,100727.47
2023-02-18T00:56:48.865Z,100722.91
2023-02-18T00:59:17.478Z,100723.53
2023-02-18T01:01:46.365Z,100726.16
2023-02-18T01:04:16.994Z,100735.06
2023-02-18T01:06:45.312Z,100734.34
2023-02-18T01:09:13.418Z,100731.63
2023-02-18T01:11:41.605Z,100739.66
2023-02-18T01:14:09.737Z,100732.72
2023-02-18T01:16:38.630Z,100734.28
2023-02-18T01:19:07.068Z,100731.66
2023-02-18T01:21:35.115Z,100718.81
2023-02-18T01:24:03.809Z,100714.38
2023-02-18T01:26:32.035Z,100716.03
2023-02-18T01:29:00.198Z,100713.22
2023-02-18T01:31:28.738Z,100714.16
2023-02-18T01:33:56.811Z,100703.47
2023-02-18T01:36:25.085Z,100703.38
2023-02-18T01:38:54.114Z,100696.56
2023-02-18T01:41:22.632Z,100697.28
2023-02-18T01:44:11.398Z,100689.25
2023-02-18T01:46:39.577Z,100681.34
2023-02-18T01:49:07.583Z,100683.00
2023-02-18T01:51:48.182Z,100682.91
2023-02-18T01:54:43.914Z,100683.13
2023-02-18T01:57:15.871Z,100670.88
2023-02-18T01:59:53.995Z,100662.13
2023-02-18T02:02:26.464Z,100657.03
2023-02-18T02:04:54.976Z,100662.16
2023-02-18T02:07:24.707Z,100655.97
2023-02-18T02:09:54.361Z,100650.00
2023-02-18T02:12:51.885Z,100630.75
2023-02-18T02:15:52.291Z,100630.63
2023-02-18T02:18:42.778Z,100626.00
2023-02-18T02:21:44.917Z,100626.72
2023-02-18T02:24:54.099Z,100633.91
2023-02-18T02:27:27.115Z,100639.09
2023-02-18T02:30:12.781Z,100625.81
2023-02-18T02:32:47.274Z,100626.78
2023-02-18T02:35:45.345Z,100636.56
2023-02-18T02:38:21.029Z,100623.25
2023-02-18T02:40:52.199Z,100633.59
2023-02-18T02:43:38.767Z,100639.50
2023-02-18T02:46:22.816Z,100637.63
2023-02-18T02:49:19.592Z,100636.50
2023-02-18T02:52:01.239Z,100627.16
2023-02-18T02:54:29.752Z,100624.53
2023-02-18T02:57:29.778Z,100618.25
2023-02-18T03:00:02.532Z,100611.13
2023-02-18T03:02:40.148Z,100606.06
2023-02-18T03:05:54.477Z,100590.47
2023-02-18T03:08:25.390Z,100584.38
2023-02-18T03:11:05.474Z,100599.13
2023-02-18T03:13:54.761Z,100581.09
2023-02-18T03:16:38.192Z,100570.63
2023-02-18T03:19:27.295Z,100559.25
2023-02-18T03:22:03.741Z,100559.31
2023-02-18T03:24:40.668Z,100559.06
2023-02-18T03:27:22.357Z,100556.34
2023-02-18T03:29:57.989Z,100566.53
2023-02-18T03:32:27.895Z,100565.53
2023-02-18T03:35:01.022Z,100565.44
2023-02-18T03:37:31.797Z,100562.66
2023-02-18T03:40:01.861Z,100559.72
2023-02-18T03:42:37.048Z,100549.00
2023-02-18T03:45:09.940Z,100537.72
2023-02-18T03:47:38.525Z,100537.72
2023-02-18T03:50:07.724Z,100537.94
2023-02-18T03:52:37.170Z,100550.94
2023-02-18T03:55:06.045Z,100540.97
2023-02-18T03:57:34.579Z,100547.84
2023-02-18T04:00:02.986Z,100540.06
2023-02-18T04:02:32.284Z,100543.44
2023-02-18T04:05:02.072Z,100534.69
2023-02-18T04:07:31.989Z,100521.72
2023-02-18T04:10:05.163Z,100515.88
2023-02-18T04:12:33.866Z,100499.38
2023-02-18T04:15:02.595Z,100486.94
2023-02-18T04:17:31.492Z,100480.03
2023-02-18T04:20:00.303Z,100469.69
2023-02-18T04:22:28.367Z,100458.28
2023-02-18T04:24:56.890Z,100464.63
2023-02-18T04:27:27.484Z,100456.25
2023-02-18T04:29:56.044Z,100451.66
2023-02-18T04:32:24.559Z,100433.25
2023-02-18T04:34:53.089Z,100425.34
2023-02-18T04:37:22.723Z,100431.41
2023-02-18T04:39:51.187Z,100444.38
2023-02-18T04:42:20.072Z,100460.84
2023-02-18T04:44:48.623Z,100465.84
2023-02-18T04:47:16.734Z,100448.97
2023-02-18T04:49:45.034Z,100443.66
2023-02-18T04:52:13.076Z,100444.63
2023-02-18T04:54:41.566Z,100434.91
2023-02-18T04:57:10.991Z,100429.59
2023-02-18T04:59:45.063Z,100416.25
2023-02-18T05:02:13.620Z,100418.81
2023-02-18T05:04:43.131Z,100406.56
2023-02-18T05:07:11.270Z,100411.63
2023-02-18T05:09:39.561Z,100406.34
2023-02-18T05:12:08.160Z,100412.50
2023-02-18T05:14:36.488Z,100411.56
2023-02-18T05:17:06.844Z,100399.94
2023-02-18T05:19:37.994Z,100400.56
2023-02-18T05:22:16.634Z,100398.78
2023-02-18T05:24:44.747Z,100390.84
2023-02-18T05:27:13.026Z,100389.84
2023-02-18T05:29:42.960Z,100390.25
2023-02-18T05:32:11.162Z,100370.38
2023-02-18T05:34:56.786Z,100364.59
2023-02-18T05:37:28.581Z,100362.81
2023-02-18T05:39:56.438Z,100370.88
2023-02-18T05:42:27.588Z,100352.13
2023-02-18T05:44:55.936Z,100351.16
2023-02-18T05:47:24.268Z,100350.06
2023-02-18T05:49:56.547Z,100345.25
2023-02-18T05:52:25.030Z,100351.28
2023-02-18T05:54:53.213Z,100344.16
2023-02-18T05:57:22.124Z,100336.97
2023-02-18T05:59:50.834Z,100341.16
2023-02-18T06:02:19.679Z,100346.56
2023-02-18T06:04:47.848Z,100333.91
2023-02-18T06:07:15.976Z,100322.59
2023-02-18T06:09:44.980Z,100320.56
2023-02-18T06:12:13.359Z,100318.72
2023-02-18T06:14:42.704Z,100320.38
2023-02-18T06:17:12.676Z,100306.41
2023-02-18T06:19:41.457Z,100298.28
2023-02-18T06:22:09.758Z,100293.63
2023-02-18T06:24:38.363Z,100288.22
2023-02-18T06:27:09.598Z,100280.00
2023-02-18T06:29:38.416Z,100279.03
2023-02-18T06:32:09.763Z,100269.00
2023-02-18T06:34:40.411Z,100267.88
2023-02-18T06:37:08.630Z,100268.63
2023-02-18T06:39:42.645Z,100263.06
2023-02-18T06:42:10.673Z,100256.88
2023-02-18T06:45:01.511Z,100257.72
2023-02-18T06:47:30.139Z,100257.44
2023-02-18T06:49:58.104Z,100248.44
2023-02-18T06:52:26.260Z,100252.81
2023-02-18T06:54:54.566Z,100252.38
2023-02-18T06:57:25.568Z,100248.59
2023-02-18T06:59:53.906Z,100240.84
2023-02-18T07:02:22.154Z,100240.13
2023-02-18T07:04:50.721Z,100221.75
2023-02-18T07:07:19.288Z,100219.44
2023-02-18T07:09:47.564Z,100208.66
2023-02-18T07:12:19.699Z,100199.41
2023-02-18T07:14:49.888Z,100193.22
2023-02-18T07:17:20.453Z,100188.06
2023-02-18T07:19:48.432Z,100182.19
2023-02-18T07:22:16.415Z,100174.84
2023-02-18T07:24:44.967Z,100157.00
2023-02-18T07:27:13.269Z,100147.97
2023-02-18T07:29:41.523Z,100140.16
2023-02-18T07:32:12.458Z,100127.25
2023-02-18T07:34:40.969Z,100120.28
2023-02-18T07:37:12.918Z,100130.84
2023-02-18T07:39:44.014Z,100119.22
2023-02-18T07:42:14.529Z,100110.50
2023-02-18T07:44:43.214Z,100113.06
2023-02-18T07:47:14.673Z,100102.75
2023-02-18T07:49:43.574Z,100099.78
2023-02-18T07:52:11.673Z,100100.00
2023-02-18T07:54:40.321Z,100083.69
2023-02-18T07:57:12.124Z,100087.25
2023-02-18T07:59:43.372Z,100078.38
2023-02-18T08:02:22.924Z,100069.06
2023-02-18T08:04:51.346Z,100065.47
2023-02-18T08:07:21.729Z,100058.28
2023-02-18T08:09:51.190Z,100059.13
2023-02-18T08:12:19.612Z,100047.19
2023-02-18T08:14:47.860Z,100041.72
2023-02-18T08:17:21.978Z,100031.81
2023-02-18T08:19:50.544Z,100023.25
2023-02-18T08:22:19.404Z,100015.34
2023-02-18T08:24:47.624Z,100006.38
